createdAt,value
2022-09-23T00:00:43.945Z,8.20
2022-09-23T00:03:11.011Z,8.22
2022-09-23T00:05:38.338Z,8.21
2022-09-23T00:08:06.460Z,8.23
2022-09-23T00:10:33.005Z,8.23
2022-09-23T00:12:59.834Z,8.21
2022-09-23T00:15:26.886Z,8.19
2022-09-23T00:17:53.408Z,8.18
2022-09-23T00:20:20.204Z,8.16
2022-09-23T00:22:46.643Z,8.13
2022-09-23T00:25:13.132Z,8.10
2022-09-23T00:27:41.899Z,8.10
2022-09-23T00:30:10.121Z,8.04
2022-09-23T00:32:37.763Z,8.03
2022-09-23T00:35:04.530Z,8.01
2022-09-23T00:37:31.549Z,7.96
2022-09-23T00:40:00.713Z,7.91
2022-09-23T00:42:27.123Z,7.90
2022-09-23T00:44:59.302Z,7.91
2022-09-23T00:47:41.036Z,7.94
2022-09-23T00:50:26.404Z,7.90
2022-09-23T00:52:56.664Z,7.86
2022-09-23T00:55:28.146Z,7.86
2022-09-23T00:57:56.864Z,7.87
2022-09-23T01:00:23.703Z,7.87
2022-09-23T01:02:51.104Z,7.82
2022-09-23T01:05:18.458Z,7.81
2022-09-23T01:07:45.915Z,7.80
2022-09-23T01:10:14.550Z,7.76
2022-09-23T01:13:07.711Z,7.68
2022-09-23T01:16:06.619Z,7.64
2022-09-23T01:18:53.797Z,7.60
2022-09-23T01:21:41.955Z,7.59
2022-09-23T01:24:32.941Z,7.57
2022-09-23T01:27:12.964Z,7.51
2022-09-23T01:30:01.345Z,7.51
2022-09-23T01:32:39.040Z,7.49
2022-09-23T01:35:09.661Z,7.47
2022-09-23T01:38:00.912Z,7.47
2022-09-23T01:40:51.757Z,7.48
2022-09-23T01:43:25.944Z,7.46
2022-09-23T01:45:59.427Z,7.45
2022-09-23T01:48:44.975Z,7.38
2022-09-23T01:51:42.223Z,7.34
2022-09-23T01:54:31.549Z,7.27
2022-09-23T01:57:03.621Z,7.25
2022-09-23T01:59:40.624Z,7.28
2022-09-23T02:02:15.845Z,7.30
2022-09-23T02:04:54.088Z,7.28
2022-09-23T02:07:45.108Z,7.23
2022-09-23T02:10:36.225Z,7.16
2022-09-23T02:13:09.135Z,7.16
2022-09-23T02:15:44.661Z,7.20
2022-09-23T02:18:20.129Z,7.16
2022-09-23T02:20:49.009Z,7.15
2022-09-23T02:23:20.977Z,7.16
2022-09-23T02:25:53.060Z,7.19
2022-09-23T02:28:34.513Z,7.20
2022-09-23T02:31:21.323Z,7.18
2022-09-23T02:33:56.954Z,7.19
2022-09-23T02:36:31.421Z,7.18
2022-09-23T02:39:03.439Z,7.12
2022-09-23T02:41:44.572Z,7.09
2022-09-23T02:44:16.891Z,7.03
2022-09-23T02:46:44.264Z,6.97
2022-09-23T02:49:17.487Z,6.98
2022-09-23T02:51:44.673Z,6.96
2022-09-23T02:54:15.627Z,6.96
2022-09-23T02:56:42.585Z,6.95
2022-09-23T02:59:10.074Z,6.93
2022-09-23T03:01:56.758Z,6.89
2022-09-23T03:04:42.437Z,6.85
2022-09-23T03:07:35.807Z,6.81
2022-09-23T03:10:07.557Z,6.79
2022-09-23T03:13:07.664Z,6.75
2022-09-23T03:15:43.139Z,6.72
2022-09-23T03:18:17.349Z,6.72
2022-09-23T03:20:52.526Z,6.72
2022-09-23T03:23:25.127Z,6.71
2022-09-23T03:25:55.498Z,6.70
2022-09-23T03:28:25.299Z,6.67
2022-09-23T03:30:54.351Z,6.66
2022-09-23T03:33:28.528Z,6.64
2022-09-23T03:36:27.934Z,6.63
2022-09-23T03:39:05.409Z,6.64
2022-09-23T03:41:37.874Z,6.65
2022-09-23T03:44:07.051Z,6.61
2022-09-23T03:46:35.317Z,6.61
2022-09-23T03:49:16.363Z,6.62
2022-09-23T03:51:44.657Z,6.60
2022-09-23T03:54:11.342Z,6.60
2022-09-23T03:56:37.770Z,6.64
2022-09-23T03:59:04.170Z,6.65
2022-09-23T04:01:30.639Z,6.67
2022-09-23T04:03:57.052Z,6.66
2022-09-23T04:06:23.473Z,6.68
2022-09-23T04:08:50.068Z,6.70
2022-09-23T04:11:16.460Z,6.71
2022-09-23T04:13:42.907Z,6.67
2022-09-23T04:16:09.395Z,6.64
2022-09-23T04:18:35.862Z,6.66
2022-09-23T04:21:02.420Z,6.65
2022-09-23T04:23:28.834Z,6.63
2022-09-23T04:25:55.579Z,6.60
2022-09-23T04:28:22.469Z,6.57
2022-09-23T04:30:50.061Z,6.62
2022-09-23T04:33:17.323Z,6.62
2022-09-23T04:35:43.792Z,6.64
2022-09-23T04:38:13.153Z,6.66
2022-09-23T04:40:40.348Z,6.65
2022-09-23T04:43:10.553Z,6.68
2022-09-23T04:45:39.346Z,6.73
2022-09-23T04:48:05.782Z,6.75
2022-09-23T04:50:33.777Z,6.78
2022-09-23T04:53:00.217Z,6.79
2022-09-23T04:55:26.676Z,6.79
2022-09-23T04:57:55.469Z,6.82
2022-09-23T05:00:23.148Z,6.83
2022-09-23T05:02:50.620Z,6.87
2022-09-23T05:05:21.073Z,6.90
2022-09-23T05:07:48.407Z,6.91
2022-09-23T05:10:15.507Z,6.94
2022-09-23T05:12:42.140Z,6.99
2022-09-23T05:15:08.825Z,7.01
2022-09-23T05:17:37.190Z,7.02
2022-09-23T05:20:04.815Z,7.06
2022-09-23T05:22:31.836Z,7.07
2022-09-23T05:25:00.188Z,7.08
2022-09-23T05:27:26.682Z,7.10
2022-09-23T05:29:53.151Z,7.11
2022-09-23T05:32:20.001Z,7.10
2022-09-23T05:34:46.698Z,7.11
2022-09-23T05:37:13.203Z,7.09
2022-09-23T05:39:39.646Z,7.11
2022-09-23T05:42:06.757Z,7.13
2022-09-23T05:44:33.209Z,7.16
2022-09-23T05:46:59.693Z,7.18
2022-09-23T05:49:42.493Z,7.21
2022-09-23T05:52:12.532Z,7.26
2022-09-23T05:54:39.192Z,7.32
2022-09-23T05:57:06.032Z,7.37
2022-09-23T05:59:32.823Z,7.42
2022-09-23T06:01:59.851Z,7.47
2022-09-23T06:04:26.359Z,7.50
2022-09-23T06:06:53.074Z,7.53
2022-09-23T06:09:19.501Z,7.54
2022-09-23T06:11:46.697Z,7.58
2022-09-23T06:14:14.578Z,7.61
2022-09-23T06:16:41.029Z,7.65
2022-09-23T06:19:07.463Z,7.70
2022-09-23T06:21:37.243Z,7.73
2022-09-23T06:24:04.162Z,7.77
2022-09-23T06:26:33.515Z,7.83
2022-09-23T06:29:01.636Z,7.87
2022-09-23T06:31:28.905Z,7.93
2022-09-23T06:34:08.664Z,8.00
2022-09-23T06:36:43.955Z,8.07
2022-09-23T06:39:12.451Z,8.12
2022-09-23T06:41:39.220Z,8.18
2022-09-23T06:44:11.384Z,8.28
2022-09-23T06:46:37.922Z,8.38
2022-09-23T06:49:04.590Z,8.46
2022-09-23T06:51:31.473Z,8.56
2022-09-23T06:53:57.912Z,8.67
2022-09-23T06:56:24.687Z,8.77
2022-09-23T06:58:52.476Z,8.89
2022-09-23T07:01:19.637Z,9.01
2022-09-23T07:03:48.117Z,9.12
2022-09-23T07:06:14.697Z,9.24
2022-09-23T07:08:44.076Z,9.36
2022-09-23T07:11:13.104Z,9.49
2022-09-23T07:13:41.247Z,9.65
2022-09-23T07:16:09.289Z,9.79
2022-09-23T07:18:37.367Z,9.91
2022-09-23T07:21:14.899Z,10.03
2022-09-23T07:23:46.203Z,10.12
2022-09-23T07:26:16.643Z,10.24
2022-09-23T07:28:43.384Z,10.39
2022-09-23T07:31:20.602Z,10.51
2022-09-23T07:33:57.656Z,10.63
2022-09-23T07:36:24.961Z,10.73
2022-09-23T07:38:51.440Z,10.84
2022-09-23T07:41:19.103Z,10.92
2022-09-23T07:43:46.366Z,11.02
2022-09-23T07:46:16.749Z,11.11
2022-09-23T07:48:44.984Z,11.20
2022-09-23T07:51:19.074Z,11.33
2022-09-23T07:53:49.952Z,11.44
2022-09-23T07:56:18.922Z,11.58
2022-09-23T07:58:59.942Z,11.75
2022-09-23T08:01:31.226Z,11.91
2022-09-23T08:03:59.686Z,12.03
2022-09-23T08:06:26.436Z,12.15
2022-09-23T08:08:53.613Z,12.32
2022-09-23T08:11:20.389Z,12.47
2022-09-23T08:13:47.532Z,12.59
2022-09-23T08:16:14.181Z,12.65
2022-09-23T08:18:43.917Z,12.76
2022-09-23T08:21:10.315Z,12.87
2022-09-23T08:23:37.035Z,13.09
2022-09-23T08:26:10.031Z,13.29
2022-09-23T08:28:41.017Z,13.45
2022-09-23T08:31:08.289Z,13.56
2022-09-23T08:33:34.765Z,13.65
2022-09-23T08:36:02.600Z,13.75
2022-09-23T08:38:29.782Z,13.86
2022-09-23T08:41:07.570Z,14.01
2022-09-23T08:43:35.934Z,14.13
2022-09-23T08:46:05.150Z,14.31
2022-09-23T08:48:42.280Z,14.51
2022-09-23T08:51:15.856Z,14.64
2022-09-23T08:53:43.757Z,14.63
2022-09-23T08:56:19.186Z,14.69
2022-09-23T08:59:07.484Z,14.67
2022-09-23T09:01:45.593Z,14.66
2022-09-23T09:04:32.898Z,14.66
2022-09-23T09:07:35.270Z,14.68
2022-09-23T09:10:23.252Z,14.77
2022-09-23T09:13:07.316Z,14.84
2022-09-23T09:15:42.796Z,14.86
2022-09-23T09:18:19.818Z,14.93
2022-09-23T09:20:57.314Z,14.98
2022-09-23T09:23:31.544Z,15.00
2022-09-23T09:26:01.521Z,14.99
2022-09-23T09:28:48.709Z,15.05
2022-09-23T09:31:24.566Z,15.09
2022-09-23T09:33:57.911Z,15.10
2022-09-23T09:36:42.522Z,15.10
2022-09-23T09:39:14.356Z,15.10
2022-09-23T09:41:46.683Z,15.15
2022-09-23T09:44:24.759Z,15.24
2022-09-23T09:47:02.671Z,15.28
2022-09-23T09:49:48.839Z,15.41
2022-09-23T09:52:26.839Z,15.48
2022-09-23T09:54:53.695Z,15.60
2022-09-23T09:57:33.678Z,15.77
2022-09-23T10:00:26.449Z,15.97
2022-09-23T10:03:24.647Z,16.23
2022-09-23T10:05:54.374Z,16.27
2022-09-23T10:08:34.953Z,16.30
2022-09-23T10:11:08.044Z,16.30
2022-09-23T10:13:37.959Z,16.33
2022-09-23T10:16:05.262Z,16.38
2022-09-23T10:18:37.417Z,16.48
2022-09-23T10:21:06.978Z,16.62
2022-09-23T10:23:34.076Z,16.80
2022-09-23T10:26:03.022Z,16.93
2022-09-23T10:28:41.171Z,17.03
2022-09-23T10:31:26.279Z,17.07
2022-09-23T10:34:26.544Z,17.03
2022-09-23T10:37:07.520Z,17.03
2022-09-23T10:39:52.591Z,17.07
2022-09-23T10:42:52.662Z,17.09
2022-09-23T10:45:45.696Z,17.05
2022-09-23T10:48:28.661Z,17.07
2022-09-23T10:50:59.448Z,17.11
2022-09-23T10:53:57.555Z,17.13
2022-09-23T10:56:40.749Z,17.16
2022-09-23T10:59:18.640Z,17.14
2022-09-23T11:01:59.094Z,17.21
2022-09-23T11:04:54.757Z,17.24
2022-09-23T11:07:39.290Z,17.30
2022-09-23T11:10:23.340Z,17.41
2022-09-23T11:13:15.029Z,17.46
2022-09-23T11:15:53.641Z,17.45
2022-09-23T11:18:32.026Z,17.53
2022-09-23T11:21:20.143Z,17.62
2022-09-23T11:23:59.618Z,17.61
2022-09-23T11:26:53.034Z,17.59
2022-09-23T11:29:34.282Z,17.64
2022-09-23T11:32:39.628Z,17.70
2022-09-23T11:35:22.820Z,17.63
2022-09-23T11:37:58.571Z,17.67
2022-09-23T11:40:34.427Z,17.83
2022-09-23T11:43:15.548Z,17.93
2022-09-23T11:45:57.871Z,17.99
2022-09-23T11:48:37.931Z,18.02
2022-09-23T11:51:21.366Z,18.06
2022-09-23T11:53:55.129Z,18.13
2022-09-23T11:56:34.913Z,18.09
2022-09-23T11:59:34.791Z,18.16
2022-09-23T12:02:19.215Z,18.28
2022-09-23T12:05:03.712Z,18.32
2022-09-23T12:07:56.511Z,18.41
2022-09-23T12:10:36.013Z,18.46
2022-09-23T12:13:34.211Z,18.60
2022-09-23T12:16:18.896Z,18.74
2022-09-23T12:19:23.108Z,18.74
2022-09-23T12:22:06.361Z,18.62
2022-09-23T12:24:55.919Z,18.57
2022-09-23T12:27:31.854Z,18.58
2022-09-23T12:30:04.748Z,18.61
2022-09-23T12:32:32.521Z,18.64
2022-09-23T12:35:00.471Z,18.58
2022-09-23T12:37:35.548Z,18.51
2022-09-23T12:40:16.906Z,18.52
2022-09-23T12:42:46.265Z,18.54
2022-09-23T12:45:28.157Z,18.58
2022-09-23T12:47:54.758Z,18.64
2022-09-23T12:50:53.964Z,18.52
2022-09-23T12:53:35.676Z,18.50
2022-09-23T12:56:18.161Z,18.50
2022-09-23T12:58:44.674Z,18.42
2022-09-23T13:01:17.059Z,18.48
2022-09-23T13:04:08.459Z,18.53
2022-09-23T13:06:41.083Z,18.62
2022-09-23T13:09:16.748Z,18.67
2022-09-23T13:11:47.868Z,18.75
2022-09-23T13:14:27.270Z,18.82
2022-09-23T13:16:58.197Z,18.86
2022-09-23T13:19:34.279Z,18.87
2022-09-23T13:22:09.454Z,18.93
2022-09-23T13:24:47.461Z,18.91
2022-09-23T13:27:33.970Z,18.95
2022-09-23T13:30:19.305Z,18.84
2022-09-23T13:32:53.595Z,18.80
2022-09-23T13:35:27.109Z,18.76
2022-09-23T13:37:53.589Z,18.74
2022-09-23T13:40:26.987Z,18.73
2022-09-23T13:43:01.235Z,18.67
2022-09-23T13:45:28.945Z,18.73
2022-09-23T13:48:01.314Z,18.78
2022-09-23T13:50:34.712Z,18.89
2022-09-23T13:53:06.353Z,18.98
2022-09-23T13:55:38.890Z,19.05
2022-09-23T13:58:28.305Z,19.01
2022-09-23T14:00:56.717Z,19.04
2022-09-23T14:03:26.106Z,19.05
2022-09-23T14:05:55.488Z,19.04
2022-09-23T14:08:22.689Z,19.09
2022-09-23T14:10:49.608Z,19.14
2022-09-23T14:13:41.557Z,19.22
2022-09-23T14:16:10.949Z,19.10
2022-09-23T14:18:51.737Z,18.99
2022-09-23T14:21:39.716Z,19.07
2022-09-23T14:24:44.519Z,19.12
2022-09-23T14:27:15.803Z,19.17
2022-09-23T14:29:47.761Z,19.06
2022-09-23T14:32:17.768Z,18.99
2022-09-23T14:35:00.792Z,18.98
2022-09-23T14:37:55.079Z,18.92
2022-09-23T14:40:26.470Z,18.87
2022-09-23T14:43:26.894Z,18.95
2022-09-23T14:45:56.755Z,18.93
2022-09-23T14:48:31.547Z,18.87
2022-09-23T14:51:00.039Z,18.80
2022-09-23T14:53:40.907Z,18.76
2022-09-23T14:56:07.313Z,18.73
2022-09-23T14:58:52.342Z,18.64
2022-09-23T15:01:32.049Z,18.49
2022-09-23T15:04:08.874Z,18.35
2022-09-23T15:06:37.918Z,18.38
2022-09-23T15:09:05.706Z,18.34
2022-09-23T15:11:35.066Z,18.30
2022-09-23T15:14:35.990Z,18.19
2022-09-23T15:16:51.122Z,18.20
2022-09-23T15:19:20.910Z,18.16
2022-09-23T15:21:52.108Z,18.12
2022-09-23T15:24:33.835Z,18.07
2022-09-23T15:27:00.153Z,18.09
2022-09-23T15:29:26.938Z,18.04
2022-09-23T15:31:53.488Z,18.04
2022-09-23T15:34:20.813Z,17.99
2022-09-23T15:36:48.251Z,17.90
2022-09-23T15:39:14.963Z,17.89
2022-09-23T15:41:43.140Z,17.80
2022-09-23T15:44:14.393Z,17.79
2022-09-23T15:46:46.653Z,17.79
2022-09-23T15:49:27.349Z,17.79
2022-09-23T15:51:55.789Z,17.78
2022-09-23T15:54:22.233Z,17.78
2022-09-23T15:56:48.641Z,17.77
2022-09-23T15:59:15.029Z,17.76
2022-09-23T16:01:43.158Z,17.62
2022-09-23T16:04:12.912Z,17.53
2022-09-23T16:06:39.601Z,17.49
2022-09-23T16:09:06.072Z,17.48
2022-09-23T16:11:32.714Z,17.44
2022-09-23T16:14:00.579Z,17.40
2022-09-23T16:16:30.069Z,17.42
2022-09-23T16:18:56.745Z,17.43
2022-09-23T16:21:28.461Z,17.41
2022-09-23T16:23:57.131Z,17.40
2022-09-23T16:26:27.211Z,17.30
2022-09-23T16:28:55.800Z,17.18
2022-09-23T16:31:25.368Z,17.15
2022-09-23T16:33:53.349Z,17.10
2022-09-23T16:36:28.792Z,17.03
2022-09-23T16:38:55.778Z,17.00
2022-09-23T16:41:23.422Z,16.95
2022-09-23T16:43:50.904Z,16.94
2022-09-23T16:46:19.448Z,16.88
2022-09-23T16:48:52.249Z,16.80
2022-09-23T16:51:26.413Z,16.69
2022-09-23T16:53:54.456Z,16.59
2022-09-23T16:56:27.973Z,16.55
2022-09-23T16:58:55.523Z,16.45
2022-09-23T17:02:03.588Z,16.37
2022-09-23T17:04:30.487Z,16.30
2022-09-23T17:06:57.594Z,16.30
2022-09-23T17:09:26.738Z,16.21
2022-09-23T17:12:04.322Z,16.13
2022-09-23T17:14:31.472Z,16.07
2022-09-23T17:16:58.842Z,15.97
2022-09-23T17:19:25.371Z,15.93
2022-09-23T17:21:53.033Z,15.96
2022-09-23T17:24:19.433Z,15.94
2022-09-23T17:26:49.364Z,15.90
2022-09-23T17:29:19.140Z,15.81
2022-09-23T17:31:46.591Z,15.83
2022-09-23T17:34:13.228Z,15.77
2022-09-23T17:36:40.319Z,15.76
2022-09-23T17:39:06.982Z,15.76
2022-09-23T17:41:33.525Z,15.73
2022-09-23T17:44:00.478Z,15.69
2022-09-23T17:46:28.871Z,15.61
2022-09-23T17:48:56.226Z,15.61
2022-09-23T17:51:24.125Z,15.58
2022-09-23T17:53:51.054Z,15.57
2022-09-23T17:56:24.802Z,15.46
2022-09-23T17:58:53.270Z,15.40
2022-09-23T18:01:22.349Z,15.37
2022-09-23T18:03:54.421Z,15.32
2022-09-23T18:06:23.128Z,15.27
2022-09-23T18:08:51.038Z,15.24
2022-09-23T18:11:38.710Z,15.27
2022-09-23T18:14:16.595Z,15.23
2022-09-23T18:16:45.573Z,15.15
2022-09-23T18:19:14.679Z,15.13
2022-09-23T18:21:44.445Z,15.13
2022-09-23T18:26:59.653Z,15.09
2022-09-23T18:29:26.340Z,15.04
2022-09-23T18:31:53.009Z,15.01
2022-09-23T18:34:20.105Z,15.02
2022-09-23T18:36:46.753Z,15.00
2022-09-23T18:39:13.200Z,14.96
2022-09-23T18:41:40.578Z,14.94
2022-09-23T18:44:07.086Z,14.91
2022-09-23T18:46:33.750Z,14.90
2022-09-23T18:49:18.838Z,14.89
2022-09-23T18:51:54.507Z,14.84
2022-09-23T18:54:22.350Z,14.75
2022-09-23T18:56:49.854Z,14.72
2022-09-23T18:59:19.423Z,14.71
2022-09-23T19:01:47.620Z,14.71
2022-09-23T19:04:16.684Z,14.68
2022-09-23T19:06:43.170Z,14.66
2022-09-23T19:09:10.426Z,14.63
2022-09-23T19:11:37.040Z,14.58
2022-09-23T19:14:06.519Z,14.56
2022-09-23T19:16:34.805Z,14.55
2022-09-23T19:19:02.569Z,14.52
2022-09-23T19:21:30.323Z,14.50
2022-09-23T19:24:03.298Z,14.46
2022-09-23T19:26:37.386Z,14.47
2022-09-23T19:29:05.674Z,14.48
2022-09-23T19:31:35.308Z,14.47
2022-09-23T19:34:09.879Z,14.43
2022-09-23T19:36:39.348Z,14.40
2022-09-23T19:39:17.414Z,14.41
2022-09-23T19:41:44.633Z,14.40
2022-09-23T19:44:11.712Z,14.39
2022-09-23T19:46:40.772Z,14.39
2022-09-23T19:49:07.713Z,14.38
2022-09-23T19:51:34.704Z,14.35
2022-09-23T19:54:02.129Z,14.33
2022-09-23T19:56:29.559Z,14.33
2022-09-23T19:58:57.546Z,14.30
2022-09-23T20:01:26.475Z,14.29
2022-09-23T20:03:53.349Z,14.28
2022-09-23T20:06:20.423Z,14.27
2022-09-23T20:08:47.858Z,14.28
2022-09-23T20:11:17.400Z,14.29
2022-09-23T20:13:47.111Z,14.29
2022-09-23T20:16:18.715Z,14.26
2022-09-23T20:18:46.537Z,14.24
2022-09-23T20:21:15.114Z,14.24
2022-09-23T20:23:41.960Z,14.23
2022-09-23T20:26:27.946Z,14.22
2022-09-23T20:28:55.089Z,14.18
2022-09-23T20:31:22.919Z,14.16
2022-09-23T20:33:51.293Z,14.15
2022-09-23T20:36:17.687Z,14.16
2022-09-23T20:38:44.085Z,14.15
2022-09-23T20:41:10.550Z,14.14
2022-09-23T20:43:37.021Z,14.13
2022-09-23T20:46:05.335Z,14.12
2022-09-23T20:48:31.992Z,14.12
2022-09-23T20:51:05.807Z,14.12
2022-09-23T20:53:32.684Z,14.08
2022-09-23T20:55:59.564Z,14.07
2022-09-23T20:58:29.080Z,14.07
2022-09-23T21:01:04.271Z,14.06
2022-09-23T21:03:32.048Z,14.06
2022-09-23T21:06:03.780Z,14.05
2022-09-23T21:08:30.977Z,14.04
2022-09-23T21:10:58.447Z,14.03
2022-09-23T21:13:25.115Z,14.03
2022-09-23T21:15:51.874Z,13.99
2022-09-23T21:18:22.347Z,13.96
2022-09-23T21:20:59.355Z,13.95
2022-09-23T21:23:32.179Z,13.92
2022-09-23T21:26:13.710Z,13.91
2022-09-23T21:28:42.233Z,13.90
2022-09-23T21:31:11.496Z,13.87
2022-09-23T21:33:38.034Z,13.86
2022-09-23T21:36:07.012Z,13.86
2022-09-23T21:38:37.336Z,13.84
2022-09-23T21:41:06.783Z,13.83
2022-09-23T21:43:35.543Z,13.80
2022-09-23T21:46:04.258Z,13.78
2022-09-23T21:48:33.171Z,13.79
2022-09-23T21:51:02.542Z,13.75
2022-09-23T21:53:30.965Z,13.73
2022-09-23T21:56:05.204Z,13.72
2022-09-23T21:58:33.037Z,13.72
2022-09-23T22:00:59.602Z,13.71
2022-09-23T22:03:26.190Z,13.69
2022-09-23T22:06:11.513Z,13.69
2022-09-23T22:08:42.970Z,13.69
2022-09-23T22:11:30.569Z,13.67
2022-09-23T22:13:58.037Z,13.68
2022-09-23T22:16:25.092Z,13.66
2022-09-23T22:18:55.173Z,13.64
2022-09-23T22:21:23.037Z,13.63
2022-09-23T22:23:54.190Z,13.60
2022-09-23T22:26:20.740Z,13.61
2022-09-23T22:29:05.617Z,13.60
2022-09-23T22:31:50.891Z,13.59
2022-09-23T22:34:47.527Z,13.60
2022-09-23T22:37:04.389Z,13.57
2022-09-23T22:39:30.942Z,13.56
2022-09-23T22:41:58.739Z,13.58
2022-09-23T22:44:25.508Z,13.57
2022-09-23T22:46:52.257Z,13.57
2022-09-23T22:49:19.671Z,13.57
2022-09-23T22:51:46.654Z,13.57
2022-09-23T22:54:13.159Z,13.56
2022-09-23T22:56:39.556Z,13.54
2022-09-23T22:59:08.111Z,13.54
2022-09-23T23:01:35.128Z,13.50
2022-09-23T23:04:02.090Z,13.50
2022-09-23T23:06:36.871Z,13.50
2022-09-23T23:09:08.711Z,13.51
2022-09-23T23:11:35.117Z,13.52
2022-09-23T23:14:02.786Z,13.52
2022-09-23T23:16:35.401Z,13.49
2022-09-23T23:19:09.466Z,13.48
2022-09-23T23:21:37.067Z,13.49
2022-09-23T23:24:04.865Z,13.48
2022-09-23T23:26:33.822Z,13.47
2022-09-23T23:29:01.343Z,13.47
2022-09-23T23:31:29.180Z,13.46
2022-09-23T23:33:55.679Z,13.46
2022-09-23T23:36:23.150Z,13.45
2022-09-23T23:38:51.531Z,13.45
2022-09-23T23:41:22.414Z,13.44
2022-09-23T23:44:01.075Z,13.46
2022-09-23T23:46:30.113Z,13.47
2022-09-23T23:48:57.469Z,13.45
2022-09-23T23:51:27.674Z,13.44
2022-09-23T23:53:56.467Z,13.44
2022-09-23T23:56:24.856Z,13.40
2022-09-23T23:58:59.619Z,13.40
